< < Back
Terminal Aerodrome Forecast


Current Version              Previous Versions:   1  2  3  4  5  6  7  8  9  

Terminal Aerodrome Forecast

339
FTUS44 KBMX 272323
TAFTCL
TAF
KTCL 272323Z 2800/2824 32010G18KT P6SM BKN060
     FM280300 33006KT P6SM FEW080=



Latest METAR

940
SAUS70 KWBC 290300 RRC
MTRTCL
METAR KTCL 290253Z AUTO 30003KT 10SM OVC085 07/M01 A3032 RMK AO2 SLP268
T00671011 53018


USA.gov is the U.S. government's official web portal to all federal, state and local government web resources and services.